sensor_id;sensor_type;location;lat;lon;timestamp;P1;durP1;ratioP1;P2;durP2;ratioP2
11576;SDS011;5844;51.496;6.788;2024-03-08T00:00:16;0.27;;;0.27;;
11576;SDS011;5844;51.496;6.788;2024-03-08T00:02:45;0.53;;;0.20;;
11576;SDS011;5844;51.496;6.788;2024-03-08T00:05:11;0.10;;;0.10;;
11576;SDS011;5844;51.496;6.788;2024-03-08T00:07:38;0.17;;;0.17;;
11576;SDS011;5844;51.496;6.788;2024-03-08T00:10:05;0.00;;;0.00;;
11576;SDS011;5844;51.496;6.788;2024-03-08T00:12:36;0.67;;;0.67;;
11576;SDS011;5844;51.496;6.788;2024-03-08T00:15:02;0.20;;;0.20;;
11576;SDS011;5844;51.496;6.788;2024-03-08T00:17:28;0.20;;;0.20;;
11576;SDS011;5844;51.496;6.788;2024-03-08T00:19:53;0.10;;;0.10;;
11576;SDS011;5844;51.496;6.788;2024-03-08T00:22:19;0.03;;;0.03;;
11576;SDS011;5844;51.496;6.788;2024-03-08T00:24:45;1.37;;;1.37;;
11576;SDS011;5844;51.496;6.788;2024-03-08T00:27:11;0.53;;;0.53;;
11576;SDS011;5844;51.496;6.788;2024-03-08T00:29:37;0.00;;;0.00;;
11576;SDS011;5844;51.496;6.788;2024-03-08T00:32:05;0.10;;;0.10;;
11576;SDS011;5844;51.496;6.788;2024-03-08T00:34:34;0.00;;;0.00;;
11576;SDS011;5844;51.496;6.788;2024-03-08T00:37:01;0.97;;;0.77;;
11576;SDS011;5844;51.496;6.788;2024-03-08T00:42:16;0.43;;;0.43;;
11576;SDS011;5844;51.496;6.788;2024-03-08T00:44:42;0.40;;;0.40;;
11576;SDS011;5844;51.496;6.788;2024-03-08T00:47:08;0.10;;;0.10;;
11576;SDS011;5844;51.496;6.788;2024-03-08T00:49:34;0.00;;;0.00;;
11576;SDS011;5844;51.496;6.788;2024-03-08T00:52:01;0.40;;;0.40;;
11576;SDS011;5844;51.496;6.788;2024-03-08T00:54:27;0.00;;;0.00;;
11576;SDS011;5844;51.496;6.788;2024-03-08T00:56:53;1.40;;;1.40;;
11576;SDS011;5844;51.496;6.788;2024-03-08T00:59:18;0.10;;;0.10;;
11576;SDS011;5844;51.496;6.788;2024-03-08T01:01:44;0.10;;;0.10;;
11576;SDS011;5844;51.496;6.788;2024-03-08T01:04:10;0.07;;;0.07;;
11576;SDS011;5844;51.496;6.788;2024-03-08T01:06:36;4.13;;;3.23;;
11576;SDS011;5844;51.496;6.788;2024-03-08T01:09:02;0.10;;;0.10;;
11576;SDS011;5844;51.496;6.788;2024-03-08T01:11:28;0.10;;;0.10;;
11576;SDS011;5844;51.496;6.788;2024-03-08T01:13:54;0.00;;;0.00;;
11576;SDS011;5844;51.496;6.788;2024-03-08T01:16:19;0.70;;;0.70;;
11576;SDS011;5844;51.496;6.788;2024-03-08T01:18:46;0.10;;;0.10;;
11576;SDS011;5844;51.496;6.788;2024-03-08T01:21:12;0.97;;;0.20;;
11576;SDS011;5844;51.496;6.788;2024-03-08T01:23:38;0.10;;;0.10;;
11576;SDS011;5844;51.496;6.788;2024-03-08T01:26:03;0.30;;;0.30;;
11576;SDS011;5844;51.496;6.788;2024-03-08T01:28:29;0.10;;;0.10;;
11576;SDS011;5844;51.496;6.788;2024-03-08T01:30:56;0.10;;;0.10;;
11576;SDS011;5844;51.496;6.788;2024-03-08T01:33:25;0.10;;;0.10;;
11576;SDS011;5844;51.496;6.788;2024-03-08T01:35:52;0.10;;;0.10;;
11576;SDS011;5844;51.496;6.788;2024-03-08T01:38:18;0.10;;;0.10;;
11576;SDS011;5844;51.496;6.788;2024-03-08T01:40:44;0.00;;;0.00;;
11576;SDS011;5844;51.496;6.788;2024-03-08T01:45:42;0.13;;;0.13;;
11576;SDS011;5844;51.496;6.788;2024-03-08T01:48:08;0.10;;;0.10;;
11576;SDS011;5844;51.496;6.788;2024-03-08T01:50:35;1.17;;;1.17;;
11576;SDS011;5844;51.496;6.788;2024-03-08T01:53:01;0.00;;;0.00;;
11576;SDS011;5844;51.496;6.788;2024-03-08T01:55:28;1.23;;;0.97;;
11576;SDS011;5844;51.496;6.788;2024-03-08T01:57:53;0.10;;;0.10;;
11576;SDS011;5844;51.496;6.788;2024-03-08T02:00:20;0.10;;;0.10;;
11576;SDS011;5844;51.496;6.788;2024-03-08T02:02:46;0.00;;;0.00;;
11576;SDS011;5844;51.496;6.788;2024-03-08T02:05:13;0.00;;;0.00;;
11576;SDS011;5844;51.496;6.788;2024-03-08T02:07:42;0.00;;;0.00;;
11576;SDS011;5844;51.496;6.788;2024-03-08T02:10:09;0.10;;;0.10;;
11576;SDS011;5844;51.496;6.788;2024-03-08T02:12:35;0.77;;;0.77;;
11576;SDS011;5844;51.496;6.788;2024-03-08T02:15:01;0.00;;;0.00;;
11576;SDS011;5844;51.496;6.788;2024-03-08T02:17:27;0.20;;;0.20;;
11576;SDS011;5844;51.496;6.788;2024-03-08T02:19:52;0.00;;;0.00;;
11576;SDS011;5844;51.496;6.788;2024-03-08T02:22:18;0.10;;;0.10;;
11576;SDS011;5844;51.496;6.788;2024-03-08T02:24:45;0.00;;;0.00;;
11576;SDS011;5844;51.496;6.788;2024-03-08T02:27:10;0.43;;;0.43;;
11576;SDS011;5844;51.496;6.788;2024-03-08T02:29:36;3.30;;;3.20;;
11576;SDS011;5844;51.496;6.788;2024-03-08T02:32:02;0.10;;;0.10;;
11576;SDS011;5844;51.496;6.788;2024-03-08T02:34:28;0.00;;;0.00;;
11576;SDS011;5844;51.496;6.788;2024-03-08T02:36:56;0.00;;;0.00;;
11576;SDS011;5844;51.496;6.788;2024-03-08T02:39:22;0.07;;;0.07;;
11576;SDS011;5844;51.496;6.788;2024-03-08T02:41:47;9.77;;;8.93;;
11576;SDS011;5844;51.496;6.788;2024-03-08T02:44:13;0.00;;;0.00;;
11576;SDS011;5844;51.496;6.788;2024-03-08T02:46:40;2.83;;;2.73;;
11576;SDS011;5844;51.496;6.788;2024-03-08T02:49:05;3.30;;;2.53;;
11576;SDS011;5844;51.496;6.788;2024-03-08T02:51:32;0.00;;;0.00;;
11576;SDS011;5844;51.496;6.788;2024-03-08T02:54:00;0.00;;;0.00;;
11576;SDS011;5844;51.496;6.788;2024-03-08T02:56:25;0.30;;;0.30;;
11576;SDS011;5844;51.496;6.788;2024-03-08T02:58:51;0.00;;;0.00;;
11576;SDS011;5844;51.496;6.788;2024-03-08T03:01:17;0.10;;;0.10;;
11576;SDS011;5844;51.496;6.788;2024-03-08T03:03:45;0.07;;;0.07;;
11576;SDS011;5844;51.496;6.788;2024-03-08T03:06:15;0.00;;;0.00;;
11576;SDS011;5844;51.496;6.788;2024-03-08T03:08:40;2.53;;;2.43;;
11576;SDS011;5844;51.496;6.788;2024-03-08T03:11:09;0.00;;;0.00;;
11576;SDS011;5844;51.496;6.788;2024-03-08T03:13:34;0.00;;;0.00;;
11576;SDS011;5844;51.496;6.788;2024-03-08T03:16:00;0.00;;;0.00;;
11576;SDS011;5844;51.496;6.788;2024-03-08T03:18:25;0.00;;;0.00;;
11576;SDS011;5844;51.496;6.788;2024-03-08T03:20:52;0.00;;;0.00;;
11576;SDS011;5844;51.496;6.788;2024-03-08T03:23:18;0.00;;;0.00;;
11576;SDS011;5844;51.496;6.788;2024-03-08T03:25:45;0.57;;;0.57;;
11576;SDS011;5844;51.496;6.788;2024-03-08T03:28:11;0.00;;;0.00;;
11576;SDS011;5844;51.496;6.788;2024-03-08T03:30:42;1.20;;;1.10;;
11576;SDS011;5844;51.496;6.788;2024-03-08T03:33:09;0.00;;;0.00;;
11576;SDS011;5844;51.496;6.788;2024-03-08T03:35:37;0.00;;;0.00;;
11576;SDS011;5844;51.496;6.788;2024-03-08T03:38:03;0.00;;;0.00;;
11576;SDS011;5844;51.496;6.788;2024-03-08T03:40:35;0.00;;;0.00;;
11576;SDS011;5844;51.496;6.788;2024-03-08T03:43:02;0.00;;;0.00;;
11576;SDS011;5844;51.496;6.788;2024-03-08T03:45:28;0.10;;;0.10;;
11576;SDS011;5844;51.496;6.788;2024-03-08T03:47:54;0.03;;;0.03;;
11576;SDS011;5844;51.496;6.788;2024-03-08T03:50:20;0.10;;;0.10;;
11576;SDS011;5844;51.496;6.788;2024-03-08T03:52:46;0.00;;;0.00;;
11576;SDS011;5844;51.496;6.788;2024-03-08T03:55:12;0.00;;;0.00;;
11576;SDS011;5844;51.496;6.788;2024-03-08T03:57:38;0.00;;;0.00;;
11576;SDS011;5844;51.496;6.788;2024-03-08T04:00:05;0.00;;;0.00;;
11576;SDS011;5844;51.496;6.788;2024-03-08T04:02:31;0.00;;;0.00;;
11576;SDS011;5844;51.496;6.788;2024-03-08T04:04:57;0.00;;;0.00;;
11576;SDS011;5844;51.496;6.788;2024-03-08T04:07:23;0.00;;;0.00;;
11576;SDS011;5844;51.496;6.788;2024-03-08T04:09:49;0.00;;;0.00;;
11576;SDS011;5844;51.496;6.788;2024-03-08T04:12:15;0.00;;;0.00;;
11576;SDS011;5844;51.496;6.788;2024-03-08T04:14:41;0.00;;;0.00;;
11576;SDS011;5844;51.496;6.788;2024-03-08T04:17:07;0.10;;;0.10;;
11576;SDS011;5844;51.496;6.788;2024-03-08T04:19:37;0.00;;;0.00;;
11576;SDS011;5844;51.496;6.788;2024-03-08T04:22:05;0.00;;;0.00;;
11576;SDS011;5844;51.496;6.788;2024-03-08T04:24:32;2.23;;;1.10;;
11576;SDS011;5844;51.496;6.788;2024-03-08T04:26:58;0.10;;;0.10;;
11576;SDS011;5844;51.496;6.788;2024-03-08T04:29:24;0.00;;;0.00;;
11576;SDS011;5844;51.496;6.788;2024-03-08T04:31:49;0.00;;;0.00;;
11576;SDS011;5844;51.496;6.788;2024-03-08T04:34:19;0.00;;;0.00;;
11576;SDS011;5844;51.496;6.788;2024-03-08T04:36:45;0.00;;;0.00;;
11576;SDS011;5844;51.496;6.788;2024-03-08T04:39:11;0.00;;;0.00;;
11576;SDS011;5844;51.496;6.788;2024-03-08T04:41:38;0.00;;;0.00;;
11576;SDS011;5844;51.496;6.788;2024-03-08T04:44:04;0.10;;;0.10;;
11576;SDS011;5844;51.496;6.788;2024-03-08T04:46:30;0.00;;;0.00;;
11576;SDS011;5844;51.496;6.788;2024-03-08T04:48:56;0.00;;;0.00;;
11576;SDS011;5844;51.496;6.788;2024-03-08T04:51:24;0.00;;;0.00;;
11576;SDS011;5844;51.496;6.788;2024-03-08T04:53:50;0.10;;;0.10;;
11576;SDS011;5844;51.496;6.788;2024-03-08T04:56:16;0.00;;;0.00;;
11576;SDS011;5844;51.496;6.788;2024-03-08T04:58:44;0.00;;;0.00;;
11576;SDS011;5844;51.496;6.788;2024-03-08T05:01:11;0.00;;;0.00;;
11576;SDS011;5844;51.496;6.788;2024-03-08T05:03:37;0.00;;;0.00;;
11576;SDS011;5844;51.496;6.788;2024-03-08T05:06:04;0.10;;;0.10;;
11576;SDS011;5844;51.496;6.788;2024-03-08T05:08:29;0.00;;;0.00;;
11576;SDS011;5844;51.496;6.788;2024-03-08T05:10:55;0.03;;;0.03;;
11576;SDS011;5844;51.496;6.788;2024-03-08T05:13:21;0.00;;;0.00;;
11576;SDS011;5844;51.496;6.788;2024-03-08T05:15:48;2.97;;;2.90;;
11576;SDS011;5844;51.496;6.788;2024-03-08T05:18:15;0.00;;;0.00;;
11576;SDS011;5844;51.496;6.788;2024-03-08T05:20:41;0.00;;;0.00;;
11576;SDS011;5844;51.496;6.788;2024-03-08T05:23:06;0.07;;;0.07;;
11576;SDS011;5844;51.496;6.788;2024-03-08T05:25:33;0.00;;;0.00;;
11576;SDS011;5844;51.496;6.788;2024-03-08T05:27:59;0.00;;;0.00;;
11576;SDS011;5844;51.496;6.788;2024-03-08T05:30:24;0.00;;;0.00;;
11576;SDS011;5844;51.496;6.788;2024-03-08T05:32:50;0.00;;;0.00;;
11576;SDS011;5844;51.496;6.788;2024-03-08T05:35:16;0.00;;;0.00;;
11576;SDS011;5844;51.496;6.788;2024-03-08T05:37:42;0.00;;;0.00;;
11576;SDS011;5844;51.496;6.788;2024-03-08T05:40:08;0.30;;;0.30;;
11576;SDS011;5844;51.496;6.788;2024-03-08T05:42:36;0.00;;;0.00;;
11576;SDS011;5844;51.496;6.788;2024-03-08T05:45:02;0.40;;;0.40;;
11576;SDS011;5844;51.496;6.788;2024-03-08T05:47:31;0.00;;;0.00;;
11576;SDS011;5844;51.496;6.788;2024-03-08T05:50:00;0.40;;;0.40;;
11576;SDS011;5844;51.496;6.788;2024-03-08T05:52:26;0.00;;;0.00;;
11576;SDS011;5844;51.496;6.788;2024-03-08T05:54:52;0.00;;;0.00;;
11576;SDS011;5844;51.496;6.788;2024-03-08T05:57:18;0.00;;;0.00;;
11576;SDS011;5844;51.496;6.788;2024-03-08T05:59:44;0.00;;;0.00;;
11576;SDS011;5844;51.496;6.788;2024-03-08T06:02:09;0.00;;;0.00;;
11576;SDS011;5844;51.496;6.788;2024-03-08T06:04:35;3.53;;;1.30;;
11576;SDS011;5844;51.496;6.788;2024-03-08T06:07:01;0.00;;;0.00;;
11576;SDS011;5844;51.496;6.788;2024-03-08T06:09:28;0.00;;;0.00;;
11576;SDS011;5844;51.496;6.788;2024-03-08T06:11:54;0.20;;;0.20;;
11576;SDS011;5844;51.496;6.788;2024-03-08T06:14:22;0.10;;;0.10;;
11576;SDS011;5844;51.496;6.788;2024-03-08T06:16:48;0.30;;;0.30;;
11576;SDS011;5844;51.496;6.788;2024-03-08T06:19:17;1.80;;;1.70;;
11576;SDS011;5844;51.496;6.788;2024-03-08T06:21:42;0.17;;;0.17;;
11576;SDS011;5844;51.496;6.788;2024-03-08T06:24:08;0.00;;;0.00;;
11576;SDS011;5844;51.496;6.788;2024-03-08T06:26:34;0.00;;;0.00;;
11576;SDS011;5844;51.496;6.788;2024-03-08T06:28:59;0.10;;;0.10;;
11576;SDS011;5844;51.496;6.788;2024-03-08T06:31:25;0.57;;;0.57;;
11576;SDS011;5844;51.496;6.788;2024-03-08T06:33:51;0.07;;;0.07;;
11576;SDS011;5844;51.496;6.788;2024-03-08T06:36:19;0.00;;;0.00;;
11576;SDS011;5844;51.496;6.788;2024-03-08T06:38:46;3.13;;;2.93;;
11576;SDS011;5844;51.496;6.788;2024-03-08T06:41:15;0.10;;;0.10;;
11576;SDS011;5844;51.496;6.788;2024-03-08T06:43:44;0.00;;;0.00;;
11576;SDS011;5844;51.496;6.788;2024-03-08T06:46:11;0.20;;;0.20;;
11576;SDS011;5844;51.496;6.788;2024-03-08T06:48:40;0.10;;;0.10;;
11576;SDS011;5844;51.496;6.788;2024-03-08T06:51:06;0.10;;;0.10;;
11576;SDS011;5844;51.496;6.788;2024-03-08T06:53:32;0.00;;;0.00;;
11576;SDS011;5844;51.496;6.788;2024-03-08T06:56:00;0.00;;;0.00;;
11576;SDS011;5844;51.496;6.788;2024-03-08T06:58:26;1.00;;;1.00;;
11576;SDS011;5844;51.496;6.788;2024-03-08T07:00:53;0.40;;;0.40;;
11576;SDS011;5844;51.496;6.788;2024-03-08T07:03:19;0.00;;;0.00;;
11576;SDS011;5844;51.496;6.788;2024-03-08T07:05:47;1.50;;;1.40;;
11576;SDS011;5844;51.496;6.788;2024-03-08T07:08:12;0.20;;;0.20;;
11576;SDS011;5844;51.496;6.788;2024-03-08T07:10:39;0.77;;;0.77;;
11576;SDS011;5844;51.496;6.788;2024-03-08T07:13:06;0.00;;;0.00;;
11576;SDS011;5844;51.496;6.788;2024-03-08T07:15:32;0.00;;;0.00;;
11576;SDS011;5844;51.496;6.788;2024-03-08T07:17:58;3.93;;;1.90;;
11576;SDS011;5844;51.496;6.788;2024-03-08T07:20:25;1.63;;;1.53;;
11576;SDS011;5844;51.496;6.788;2024-03-08T07:22:50;0.10;;;0.10;;
11576;SDS011;5844;51.496;6.788;2024-03-08T07:25:16;0.00;;;0.00;;
11576;SDS011;5844;51.496;6.788;2024-03-08T07:27:42;0.30;;;0.30;;
11576;SDS011;5844;51.496;6.788;2024-03-08T07:30:08;1.07;;;1.07;;
11576;SDS011;5844;51.496;6.788;2024-03-08T07:32:37;2.83;;;2.57;;
11576;SDS011;5844;51.496;6.788;2024-03-08T07:35:03;0.70;;;0.70;;
11576;SDS011;5844;51.496;6.788;2024-03-08T07:37:29;0.60;;;0.60;;
11576;SDS011;5844;51.496;6.788;2024-03-08T07:39:55;0.80;;;0.80;;
11576;SDS011;5844;51.496;6.788;2024-03-08T07:42:21;0.00;;;0.00;;
11576;SDS011;5844;51.496;6.788;2024-03-08T07:44:48;0.00;;;0.00;;
11576;SDS011;5844;51.496;6.788;2024-03-08T07:47:15;0.00;;;0.00;;
11576;SDS011;5844;51.496;6.788;2024-03-08T07:49:42;1.17;;;1.17;;
11576;SDS011;5844;51.496;6.788;2024-03-08T07:52:09;2.70;;;2.50;;
11576;SDS011;5844;51.496;6.788;2024-03-08T07:54:40;0.00;;;0.00;;
11576;SDS011;5844;51.496;6.788;2024-03-08T07:57:06;0.00;;;0.00;;
11576;SDS011;5844;51.496;6.788;2024-03-08T07:59:32;0.10;;;0.10;;
11576;SDS011;5844;51.496;6.788;2024-03-08T08:01:58;0.93;;;0.93;;
11576;SDS011;5844;51.496;6.788;2024-03-08T08:04:24;0.50;;;0.50;;
11576;SDS011;5844;51.496;6.788;2024-03-08T08:06:50;0.03;;;0.03;;
11576;SDS011;5844;51.496;6.788;2024-03-08T08:09:16;0.10;;;0.10;;
11576;SDS011;5844;51.496;6.788;2024-03-08T08:11:53;0.77;;;0.77;;
11576;SDS011;5844;51.496;6.788;2024-03-08T08:14:21;0.50;;;0.50;;
11576;SDS011;5844;51.496;6.788;2024-03-08T08:16:47;1.27;;;0.90;;
11576;SDS011;5844;51.496;6.788;2024-03-08T08:19:15;0.00;;;0.00;;
11576;SDS011;5844;51.496;6.788;2024-03-08T08:21:41;0.20;;;0.20;;
11576;SDS011;5844;51.496;6.788;2024-03-08T08:24:06;2.13;;;1.93;;
11576;SDS011;5844;51.496;6.788;2024-03-08T08:26:32;0.70;;;0.60;;
11576;SDS011;5844;51.496;6.788;2024-03-08T08:28:59;0.33;;;0.33;;
11576;SDS011;5844;51.496;6.788;2024-03-08T08:31:24;1.60;;;1.53;;
11576;SDS011;5844;51.496;6.788;2024-03-08T08:33:51;3.77;;;3.53;;
11576;SDS011;5844;51.496;6.788;2024-03-08T08:36:22;0.10;;;0.10;;
11576;SDS011;5844;51.496;6.788;2024-03-08T08:38:51;1.43;;;1.40;;
11576;SDS011;5844;51.496;6.788;2024-03-08T08:41:21;0.40;;;0.40;;
11576;SDS011;5844;51.496;6.788;2024-03-08T08:43:47;0.20;;;0.20;;
11576;SDS011;5844;51.496;6.788;2024-03-08T08:46:16;3.93;;;2.47;;
11576;SDS011;5844;51.496;6.788;2024-03-08T08:48:42;0.27;;;0.27;;
11576;SDS011;5844;51.496;6.788;2024-03-08T08:51:10;0.63;;;0.63;;
11576;SDS011;5844;51.496;6.788;2024-03-08T08:53:40;0.87;;;0.87;;
11576;SDS011;5844;51.496;6.788;2024-03-08T08:56:08;1.83;;;0.83;;
11576;SDS011;5844;51.496;6.788;2024-03-08T08:58:37;1.33;;;1.33;;
11576;SDS011;5844;51.496;6.788;2024-03-08T09:01:09;0.57;;;0.53;;
11576;SDS011;5844;51.496;6.788;2024-03-08T09:03:36;0.97;;;0.97;;
11576;SDS011;5844;51.496;6.788;2024-03-08T09:06:11;1.33;;;1.33;;
11576;SDS011;5844;51.496;6.788;2024-03-08T09:08:38;1.20;;;1.20;;
11576;SDS011;5844;51.496;6.788;2024-03-08T09:11:06;0.87;;;0.87;;
11576;SDS011;5844;51.496;6.788;2024-03-08T09:13:32;0.60;;;0.60;;
11576;SDS011;5844;51.496;6.788;2024-03-08T09:15:59;0.80;;;0.80;;
11576;SDS011;5844;51.496;6.788;2024-03-08T09:18:24;0.80;;;0.80;;
11576;SDS011;5844;51.496;6.788;2024-03-08T09:20:50;0.90;;;0.90;;
11576;SDS011;5844;51.496;6.788;2024-03-08T09:23:16;2.07;;;1.97;;
11576;SDS011;5844;51.496;6.788;2024-03-08T09:25:44;2.40;;;2.30;;
11576;SDS011;5844;51.496;6.788;2024-03-08T09:28:11;1.00;;;1.00;;
11576;SDS011;5844;51.496;6.788;2024-03-08T09:30:38;1.10;;;1.10;;
11576;SDS011;5844;51.496;6.788;2024-03-08T09:33:04;1.30;;;1.30;;
11576;SDS011;5844;51.496;6.788;2024-03-08T09:35:30;1.37;;;1.37;;
11576;SDS011;5844;51.496;6.788;2024-03-08T09:37:56;1.20;;;1.20;;
11576;SDS011;5844;51.496;6.788;2024-03-08T09:40:22;3.03;;;1.87;;
11576;SDS011;5844;51.496;6.788;2024-03-08T09:42:50;1.40;;;1.40;;
11576;SDS011;5844;51.496;6.788;2024-03-08T09:45:16;3.80;;;2.60;;
11576;SDS011;5844;51.496;6.788;2024-03-08T09:47:42;4.87;;;2.80;;
11576;SDS011;5844;51.496;6.788;2024-03-08T09:50:09;2.00;;;1.90;;
11576;SDS011;5844;51.496;6.788;2024-03-08T09:52:38;2.27;;;2.17;;
11576;SDS011;5844;51.496;6.788;2024-03-08T09:55:05;2.37;;;2.27;;
11576;SDS011;5844;51.496;6.788;2024-03-08T09:57:32;2.00;;;1.90;;
11576;SDS011;5844;51.496;6.788;2024-03-08T09:59:58;1.60;;;1.60;;
11576;SDS011;5844;51.496;6.788;2024-03-08T10:02:25;2.20;;;2.10;;
11576;SDS011;5844;51.496;6.788;2024-03-08T10:04:51;2.10;;;2.00;;
11576;SDS011;5844;51.496;6.788;2024-03-08T10:07:18;5.27;;;4.73;;
11576;SDS011;5844;51.496;6.788;2024-03-08T10:09:44;2.30;;;2.20;;
11576;SDS011;5844;51.496;6.788;2024-03-08T10:12:15;3.10;;;2.90;;
11576;SDS011;5844;51.496;6.788;2024-03-08T10:14:42;3.37;;;3.27;;
11576;SDS011;5844;51.496;6.788;2024-03-08T10:17:08;3.37;;;3.27;;
11576;SDS011;5844;51.496;6.788;2024-03-08T10:19:34;2.97;;;2.87;;
11576;SDS011;5844;51.496;6.788;2024-03-08T10:22:00;2.40;;;2.30;;
11576;SDS011;5844;51.496;6.788;2024-03-08T10:24:25;2.63;;;2.53;;
11576;SDS011;5844;51.496;6.788;2024-03-08T10:27:01;4.93;;;4.63;;
11576;SDS011;5844;51.496;6.788;2024-03-08T10:29:30;1.90;;;1.80;;
11576;SDS011;5844;51.496;6.788;2024-03-08T10:31:56;1.90;;;1.80;;
11576;SDS011;5844;51.496;6.788;2024-03-08T10:34:23;1.63;;;1.63;;
11576;SDS011;5844;51.496;6.788;2024-03-08T10:36:50;3.07;;;2.97;;
11576;SDS011;5844;51.496;6.788;2024-03-08T10:39:23;2.80;;;2.70;;
11576;SDS011;5844;51.496;6.788;2024-03-08T10:41:52;4.93;;;4.57;;
11576;SDS011;5844;51.496;6.788;2024-03-08T10:47:03;7.68;;;6.20;;
11576;SDS011;5844;51.496;6.788;2024-03-08T10:49:40;2.60;;;2.50;;
11576;SDS011;5844;51.496;6.788;2024-03-08T10:52:31;3.22;;;3.03;;
11576;SDS011;5844;51.496;6.788;2024-03-08T10:54:57;2.75;;;2.65;;
11576;SDS011;5844;51.496;6.788;2024-03-08T10:57:24;2.80;;;2.70;;
11576;SDS011;5844;51.496;6.788;2024-03-08T10:59:49;2.60;;;2.50;;
11576;SDS011;5844;51.496;6.788;2024-03-08T11:02:17;3.13;;;3.03;;
11576;SDS011;5844;51.496;6.788;2024-03-08T11:04:50;4.55;;;4.25;;
11576;SDS011;5844;51.496;6.788;2024-03-08T11:07:16;2.78;;;2.67;;
11576;SDS011;5844;51.496;6.788;2024-03-08T11:09:43;2.80;;;2.70;;
11576;SDS011;5844;51.496;6.788;2024-03-08T11:12:27;6.65;;;5.95;;
11576;SDS011;5844;51.496;6.788;2024-03-08T11:15:01;3.63;;;3.53;;
11576;SDS011;5844;51.496;6.788;2024-03-08T11:20:14;4.57;;;4.35;;
11576;SDS011;5844;51.496;6.788;2024-03-08T11:22:53;3.10;;;3.00;;
11576;SDS011;5844;51.496;6.788;2024-03-08T11:25:30;3.00;;;2.90;;
11576;SDS011;5844;51.496;6.788;2024-03-08T11:28:14;3.60;;;3.50;;
11576;SDS011;5844;51.496;6.788;2024-03-08T11:33:31;3.88;;;3.75;;
11576;SDS011;5844;51.496;6.788;2024-03-08T11:39:00;4.50;;;4.30;;
11576;SDS011;5844;51.496;6.788;2024-03-08T11:41:34;3.30;;;3.20;;
11576;SDS011;5844;51.496;6.788;2024-03-08T11:44:03;4.75;;;4.55;;
11576;SDS011;5844;51.496;6.788;2024-03-08T11:46:30;3.22;;;3.13;;
11576;SDS011;5844;51.496;6.788;2024-03-08T11:48:56;3.47;;;3.38;;
11576;SDS011;5844;51.496;6.788;2024-03-08T11:51:22;4.10;;;3.90;;
11576;SDS011;5844;51.496;6.788;2024-03-08T11:53:49;3.58;;;3.47;;
11576;SDS011;5844;51.496;6.788;2024-03-08T11:56:17;4.18;;;3.97;;
11576;SDS011;5844;51.496;6.788;2024-03-08T11:58:52;4.97;;;4.68;;
11576;SDS011;5844;51.496;6.788;2024-03-08T12:01:19;4.20;;;3.92;;
11576;SDS011;5844;51.496;6.788;2024-03-08T12:03:45;3.45;;;3.35;;
11576;SDS011;5844;51.496;6.788;2024-03-08T12:06:19;3.30;;;3.20;;
11576;SDS011;5844;51.496;6.788;2024-03-08T12:08:48;3.50;;;3.40;;
11576;SDS011;5844;51.496;6.788;2024-03-08T12:11:14;3.38;;;3.28;;
11576;SDS011;5844;51.496;6.788;2024-03-08T12:13:40;6.97;;;6.47;;
11576;SDS011;5844;51.496;6.788;2024-03-08T12:16:06;5.18;;;4.95;;
11576;SDS011;5844;51.496;6.788;2024-03-08T12:18:34;8.65;;;7.90;;
11576;SDS011;5844;51.496;6.788;2024-03-08T12:21:10;3.30;;;3.20;;
11576;SDS011;5844;51.496;6.788;2024-03-08T12:23:38;4.50;;;4.30;;
11576;SDS011;5844;51.496;6.788;2024-03-08T12:28:41;6.90;;;6.35;;
11576;SDS011;5844;51.496;6.788;2024-03-08T12:31:09;3.00;;;2.90;;
11576;SDS011;5844;51.496;6.788;2024-03-08T12:33:37;3.10;;;3.00;;
11576;SDS011;5844;51.496;6.788;2024-03-08T12:36:16;3.35;;;3.15;;
11576;SDS011;5844;51.496;6.788;2024-03-08T12:38:46;3.38;;;3.28;;
11576;SDS011;5844;51.496;6.788;2024-03-08T12:41:15;3.30;;;3.20;;
11576;SDS011;5844;51.496;6.788;2024-03-08T12:43:44;8.93;;;8.23;;
11576;SDS011;5844;51.496;6.788;2024-03-08T12:46:17;3.20;;;3.10;;
11576;SDS011;5844;51.496;6.788;2024-03-08T12:49:01;3.08;;;2.97;;
11576;SDS011;5844;51.496;6.788;2024-03-08T12:51:29;2.60;;;2.50;;
11576;SDS011;5844;51.496;6.788;2024-03-08T12:53:55;3.40;;;3.30;;
11576;SDS011;5844;51.496;6.788;2024-03-08T12:56:31;2.97;;;2.88;;
11576;SDS011;5844;51.496;6.788;2024-03-08T12:58:59;3.97;;;3.78;;
11576;SDS011;5844;51.496;6.788;2024-03-08T13:01:25;3.95;;;3.75;;
11576;SDS011;5844;51.496;6.788;2024-03-08T13:03:54;4.50;;;4.30;;
11576;SDS011;5844;51.496;6.788;2024-03-08T13:06:20;3.42;;;3.22;;
11576;SDS011;5844;51.496;6.788;2024-03-08T13:08:49;3.53;;;3.42;;
11576;SDS011;5844;51.496;6.788;2024-03-08T13:11:17;3.58;;;3.47;;
11576;SDS011;5844;51.496;6.788;2024-03-08T13:13:44;3.97;;;3.83;;
11576;SDS011;5844;51.496;6.788;2024-03-08T13:16:10;3.55;;;3.30;;
11576;SDS011;5844;51.496;6.788;2024-03-08T13:18:37;3.58;;;3.47;;
11576;SDS011;5844;51.496;6.788;2024-03-08T13:21:03;3.40;;;3.30;;
11576;SDS011;5844;51.496;6.788;2024-03-08T13:23:31;3.58;;;3.47;;
11576;SDS011;5844;51.496;6.788;2024-03-08T13:25:56;3.30;;;3.20;;
11576;SDS011;5844;51.496;6.788;2024-03-08T13:28:22;3.03;;;2.92;;
11576;SDS011;5844;51.496;6.788;2024-03-08T13:30:53;4.10;;;3.90;;
11576;SDS011;5844;51.496;6.788;2024-03-08T13:33:18;3.42;;;3.33;;
11576;SDS011;5844;51.496;6.788;2024-03-08T13:35:45;3.30;;;3.20;;
11576;SDS011;5844;51.496;6.788;2024-03-08T13:38:11;2.80;;;2.70;;
11576;SDS011;5844;51.496;6.788;2024-03-08T13:40:38;3.75;;;3.55;;
11576;SDS011;5844;51.496;6.788;2024-03-08T13:43:05;4.22;;;4.03;;
11576;SDS011;5844;51.496;6.788;2024-03-08T13:45:33;3.10;;;3.00;;
11576;SDS011;5844;51.496;6.788;2024-03-08T13:48:03;3.20;;;3.00;;
11576;SDS011;5844;51.496;6.788;2024-03-08T13:50:29;3.30;;;3.20;;
11576;SDS011;5844;51.496;6.788;2024-03-08T13:52:55;3.10;;;3.00;;
11576;SDS011;5844;51.496;6.788;2024-03-08T13:55:21;9.48;;;8.93;;
11576;SDS011;5844;51.496;6.788;2024-03-08T13:57:48;4.50;;;4.30;;
11576;SDS011;5844;51.496;6.788;2024-03-08T14:00:15;3.13;;;3.03;;
11576;SDS011;5844;51.496;6.788;2024-03-08T14:02:41;4.07;;;3.88;;
11576;SDS011;5844;51.496;6.788;2024-03-08T14:05:07;3.60;;;3.40;;
11576;SDS011;5844;51.496;6.788;2024-03-08T14:07:34;3.00;;;2.90;;
11576;SDS011;5844;51.496;6.788;2024-03-08T14:10:03;3.05;;;2.95;;
11576;SDS011;5844;51.496;6.788;2024-03-08T14:12:32;2.60;;;2.50;;
11576;SDS011;5844;51.496;6.788;2024-03-08T14:14:58;2.95;;;2.85;;
11576;SDS011;5844;51.496;6.788;2024-03-08T14:17:25;2.80;;;2.70;;
11576;SDS011;5844;51.496;6.788;2024-03-08T14:19:52;3.50;;;3.40;;
11576;SDS011;5844;51.496;6.788;2024-03-08T14:22:19;3.03;;;2.92;;
11576;SDS011;5844;51.496;6.788;2024-03-08T14:24:45;3.40;;;3.20;;
11576;SDS011;5844;51.496;6.788;2024-03-08T14:27:12;4.03;;;3.83;;
11576;SDS011;5844;51.496;6.788;2024-03-08T14:29:39;5.03;;;4.78;;
11576;SDS011;5844;51.496;6.788;2024-03-08T14:32:05;3.78;;;3.63;;
11576;SDS011;5844;51.496;6.788;2024-03-08T14:34:31;3.30;;;3.20;;
11576;SDS011;5844;51.496;6.788;2024-03-08T14:36:59;3.63;;;3.42;;
11576;SDS011;5844;51.496;6.788;2024-03-08T14:39:25;3.80;;;3.60;;
11576;SDS011;5844;51.496;6.788;2024-03-08T14:41:54;3.25;;;3.15;;
11576;SDS011;5844;51.496;6.788;2024-03-08T14:44:20;3.10;;;3.00;;
11576;SDS011;5844;51.496;6.788;2024-03-08T14:46:50;3.22;;;3.13;;
11576;SDS011;5844;51.496;6.788;2024-03-08T14:49:22;3.45;;;3.35;;
11576;SDS011;5844;51.496;6.788;2024-03-08T14:51:49;3.60;;;3.50;;
11576;SDS011;5844;51.496;6.788;2024-03-08T14:54:14;3.33;;;3.22;;
11576;SDS011;5844;51.496;6.788;2024-03-08T14:56:40;3.22;;;3.13;;
11576;SDS011;5844;51.496;6.788;2024-03-08T14:59:08;3.30;;;3.20;;
11576;SDS011;5844;51.496;6.788;2024-03-08T15:01:35;3.40;;;3.30;;
11576;SDS011;5844;51.496;6.788;2024-03-08T15:04:04;3.38;;;3.28;;
11576;SDS011;5844;51.496;6.788;2024-03-08T15:06:36;3.40;;;3.30;;
11576;SDS011;5844;51.496;6.788;2024-03-08T15:09:05;3.42;;;3.33;;
11576;SDS011;5844;51.496;6.788;2024-03-08T15:11:37;3.60;;;3.50;;
11576;SDS011;5844;51.496;6.788;2024-03-08T15:14:07;3.88;;;3.67;;
11576;SDS011;5844;51.496;6.788;2024-03-08T15:16:39;3.30;;;3.20;;
11576;SDS011;5844;51.496;6.788;2024-03-08T15:19:06;4.88;;;4.55;;